createdAt,value
2023-03-15T00:01:54.451Z,2.00
2023-03-15T00:04:22.394Z,1.80
2023-03-15T00:06:51.404Z,2.10
2023-03-15T00:09:18.990Z,1.80
2023-03-15T00:11:46.512Z,1.90
2023-03-15T00:14:14.076Z,2.38
2023-03-15T00:16:42.980Z,1.80
2023-03-15T00:19:10.896Z,1.90
2023-03-15T00:21:39.708Z,1.95
2023-03-15T00:24:09.164Z,1.98
2023-03-15T00:26:36.689Z,2.03
2023-03-15T00:29:04.782Z,2.07
2023-03-15T00:31:32.486Z,2.00
2023-03-15T00:34:00.133Z,1.80
2023-03-15T00:36:27.665Z,1.75
2023-03-15T00:38:57.362Z,1.80
2023-03-15T00:41:26.256Z,2.00
2023-03-15T00:43:53.928Z,1.73
2023-03-15T00:46:21.682Z,2.10
2023-03-15T00:48:50.004Z,1.63
2023-03-15T00:51:20.085Z,1.90
2023-03-15T00:53:49.674Z,1.90
2023-03-15T00:56:18.877Z,1.70
2023-03-15T00:58:48.180Z,2.17
2023-03-15T01:01:18.931Z,1.90
2023-03-15T01:03:46.802Z,2.03
2023-03-15T01:06:16.450Z,1.77
2023-03-15T01:08:45.163Z,1.92
2023-03-15T01:11:15.485Z,1.85
2023-03-15T01:13:43.490Z,1.80
2023-03-15T01:16:14.312Z,2.10
2023-03-15T01:18:43.653Z,1.90
2023-03-15T01:21:13.250Z,2.25
2023-03-15T01:23:41.075Z,1.90
2023-03-15T01:26:12.411Z,2.17
2023-03-15T01:28:40.312Z,1.95
2023-03-15T01:31:08.375Z,2.10
2023-03-15T01:33:37.251Z,1.98
2023-03-15T01:36:07.042Z,2.30
2023-03-15T01:38:35.696Z,2.40
2023-03-15T01:41:03.455Z,2.53
2023-03-15T01:43:32.994Z,2.70
2023-03-15T01:46:18.497Z,2.15
2023-03-15T01:48:52.407Z,2.53
2023-03-15T01:51:30.335Z,2.40
2023-03-15T01:54:03.746Z,2.55
2023-03-15T01:56:36.212Z,2.10
2023-03-15T01:59:07.096Z,2.65
2023-03-15T02:01:37.656Z,2.60
2023-03-15T02:04:11.427Z,2.78
2023-03-15T02:06:46.495Z,2.50
2023-03-15T02:09:18.620Z,2.30
2023-03-15T02:11:48.946Z,2.40
2023-03-15T02:14:18.662Z,2.83
2023-03-15T02:16:46.609Z,2.10
2023-03-15T02:19:33.928Z,2.42
2023-03-15T02:22:14.141Z,2.10
2023-03-15T02:24:53.335Z,2.35
2023-03-15T02:27:30.367Z,2.60
2023-03-15T02:29:58.557Z,2.38
2023-03-15T02:32:26.235Z,2.53
2023-03-15T02:34:53.800Z,2.80
2023-03-15T02:37:21.407Z,3.10
2023-03-15T02:39:49.281Z,2.88
2023-03-15T02:42:19.179Z,2.72
2023-03-15T02:44:49.585Z,2.72
2023-03-15T02:47:21.020Z,2.63
2023-03-15T02:49:52.502Z,2.92
2023-03-15T02:52:20.446Z,2.80
2023-03-15T02:54:48.042Z,3.03
2023-03-15T02:57:17.912Z,2.80
2023-03-15T02:59:50.676Z,2.70
2023-03-15T03:02:18.821Z,2.42
2023-03-15T03:04:46.408Z,3.00
2023-03-15T03:07:14.569Z,3.00
2023-03-15T03:09:49.373Z,2.97
2023-03-15T03:12:18.250Z,3.10
2023-03-15T03:14:45.855Z,3.22
2023-03-15T03:17:18.989Z,3.00
2023-03-15T03:19:46.961Z,3.10
2023-03-15T03:22:16.764Z,2.83
2023-03-15T03:24:45.826Z,2.73
2023-03-15T03:27:15.773Z,2.97
2023-03-15T03:29:45.788Z,2.92
2023-03-15T03:32:13.821Z,3.30
2023-03-15T03:34:48.322Z,3.60
2023-03-15T03:37:18.102Z,3.27
2023-03-15T03:39:59.882Z,3.03
2023-03-15T03:42:27.567Z,3.22
2023-03-15T03:44:55.308Z,3.00
2023-03-15T03:47:25.970Z,3.53
2023-03-15T03:49:54.903Z,3.50
2023-03-15T03:52:23.218Z,3.22
2023-03-15T03:54:53.819Z,3.03
2023-03-15T03:57:21.363Z,2.60
2023-03-15T03:59:49.652Z,3.05
2023-03-15T04:02:17.202Z,2.50
2023-03-15T04:04:52.308Z,2.33
2023-03-15T04:07:23.146Z,2.30
2023-03-15T04:09:51.118Z,3.35
2023-03-15T04:12:19.393Z,2.40
2023-03-15T04:14:47.828Z,2.10
2023-03-15T04:17:16.661Z,2.28
2023-03-15T04:19:46.745Z,2.08
2023-03-15T04:22:16.179Z,2.50
2023-03-15T04:25:03.248Z,2.30
2023-03-15T04:27:58.430Z,1.90
2023-03-15T04:30:52.423Z,1.90
2023-03-15T04:33:48.976Z,2.00
2023-03-15T04:36:35.592Z,2.00
2023-03-15T04:39:21.655Z,1.80
2023-03-15T04:42:00.891Z,1.77
2023-03-15T04:44:48.740Z,1.60
2023-03-15T04:47:35.183Z,1.40
2023-03-15T04:50:22.686Z,1.60
2023-03-15T04:53:15.585Z,1.60
2023-03-15T04:56:04.254Z,1.60
2023-03-15T04:58:49.475Z,1.90
2023-03-15T05:01:39.596Z,2.42
2023-03-15T05:04:14.845Z,2.40
2023-03-15T05:07:02.672Z,3.03
2023-03-15T05:09:55.374Z,3.10
2023-03-15T05:12:50.174Z,3.70
2023-03-15T05:15:37.597Z,3.90
2023-03-15T05:18:15.702Z,4.93
2023-03-15T05:21:09.586Z,4.70
2023-03-15T05:23:44.455Z,5.27
2023-03-15T05:26:35.555Z,5.15
2023-03-15T05:29:14.855Z,5.55
2023-03-15T05:32:04.294Z,5.55
2023-03-15T05:35:01.641Z,5.55
2023-03-15T05:37:42.372Z,6.07
2023-03-15T05:40:29.962Z,5.05
2023-03-15T05:43:15.060Z,5.22
2023-03-15T05:45:52.785Z,5.45
2023-03-15T05:48:35.242Z,5.25
2023-03-15T05:51:27.464Z,6.67
2023-03-15T05:54:13.751Z,5.75
2023-03-15T05:57:13.762Z,5.55
2023-03-15T05:59:55.949Z,5.03
2023-03-15T06:02:40.962Z,4.95
2023-03-15T06:05:29.912Z,4.97
2023-03-15T06:08:02.007Z,5.20
2023-03-15T06:10:29.774Z,4.90
2023-03-15T06:13:00.384Z,4.82
2023-03-15T06:15:28.218Z,5.38
2023-03-15T06:17:57.042Z,4.73
2023-03-15T06:20:24.614Z,4.68
2023-03-15T06:22:54.146Z,4.70
2023-03-15T06:25:30.471Z,4.80
2023-03-15T06:27:58.717Z,5.18
2023-03-15T06:30:27.678Z,4.37
2023-03-15T06:33:00.056Z,4.38
2023-03-15T06:35:27.852Z,6.35
2023-03-15T06:37:56.739Z,4.90
2023-03-15T06:40:24.361Z,4.57
2023-03-15T06:42:52.132Z,4.93
2023-03-15T06:45:21.196Z,5.38
2023-03-15T06:47:49.974Z,5.22
2023-03-15T06:50:19.761Z,4.82
2023-03-15T06:52:47.303Z,5.00
2023-03-15T06:55:18.172Z,5.50
2023-03-15T06:57:46.350Z,6.72
2023-03-15T07:00:15.205Z,5.90
2023-03-15T07:02:42.817Z,6.68
2023-03-15T07:05:11.943Z,6.22
2023-03-15T07:07:39.430Z,5.97
2023-03-15T07:10:07.853Z,5.00
2023-03-15T07:12:36.847Z,5.32
2023-03-15T07:15:04.901Z,4.90
2023-03-15T07:17:32.524Z,4.40
2023-03-15T07:20:00.745Z,2.90
2023-03-15T07:22:28.290Z,2.92
2023-03-15T07:24:55.864Z,2.40
2023-03-15T07:27:23.391Z,2.72
2023-03-15T07:29:52.305Z,2.55
2023-03-15T07:32:19.997Z,2.70
2023-03-15T07:34:47.571Z,2.90
2023-03-15T07:37:15.802Z,3.63
2023-03-15T07:39:43.335Z,3.20
2023-03-15T07:42:11.444Z,3.55
2023-03-15T07:44:43.216Z,3.03
2023-03-15T07:47:12.506Z,2.70
2023-03-15T07:49:40.619Z,2.70
2023-03-15T07:52:09.027Z,3.78
2023-03-15T07:54:36.619Z,4.10
2023-03-15T07:57:04.748Z,8.20
2023-03-15T07:59:33.491Z,5.50
2023-03-15T08:02:02.901Z,4.30
2023-03-15T08:04:32.783Z,4.05
2023-03-15T08:07:01.602Z,4.40
2023-03-15T08:09:29.364Z,4.30
2023-03-15T08:11:56.931Z,4.60
2023-03-15T08:14:24.621Z,4.80
2023-03-15T08:16:52.516Z,4.82
2023-03-15T08:19:20.156Z,4.35
2023-03-15T08:21:49.003Z,4.03
2023-03-15T08:24:16.583Z,4.88
2023-03-15T08:26:44.167Z,5.90
2023-03-15T08:29:12.026Z,3.78
2023-03-15T08:31:40.236Z,4.90
2023-03-15T08:34:07.878Z,4.77
2023-03-15T08:36:35.550Z,4.65
2023-03-15T08:39:05.509Z,3.45
2023-03-15T08:41:33.101Z,3.40
2023-03-15T08:44:00.812Z,4.20
2023-03-15T08:46:28.877Z,4.20
2023-03-15T08:48:56.548Z,3.28
2023-03-15T08:51:25.388Z,3.70
2023-03-15T08:53:53.566Z,2.67
2023-03-15T08:56:22.479Z,2.83
2023-03-15T08:58:50.115Z,1.80
2023-03-15T09:01:17.730Z,1.95
2023-03-15T09:03:45.309Z,2.35
2023-03-15T09:06:13.564Z,1.88
2023-03-15T09:08:41.813Z,1.95
2023-03-15T09:11:09.469Z,2.00
2023-03-15T09:13:38.333Z,1.85
2023-03-15T09:16:06.366Z,2.88
2023-03-15T09:18:33.977Z,2.67
2023-03-15T09:21:01.616Z,2.83
2023-03-15T09:23:29.151Z,3.33
2023-03-15T09:25:56.730Z,5.15
2023-03-15T09:28:25.448Z,3.80
2023-03-15T09:30:54.983Z,2.88
2023-03-15T09:33:23.322Z,2.22
2023-03-15T09:35:51.781Z,2.30
2023-03-15T09:38:19.963Z,1.90
2023-03-15T09:40:47.838Z,1.90
2023-03-15T09:43:49.710Z,1.85
2023-03-15T09:46:27.727Z,1.90
2023-03-15T09:49:02.018Z,1.50
2023-03-15T09:51:39.483Z,1.60
2023-03-15T09:54:12.090Z,1.70
2023-03-15T09:56:45.651Z,1.55
2023-03-15T09:59:16.305Z,1.73
2023-03-15T10:01:46.339Z,1.53
2023-03-15T10:04:26.223Z,1.48
2023-03-15T10:06:56.611Z,1.50
2023-03-15T10:09:26.567Z,1.40
2023-03-15T10:12:03.459Z,1.50
2023-03-15T10:14:49.409Z,1.67
2023-03-15T10:17:25.741Z,1.48
2023-03-15T10:20:01.214Z,1.63
2023-03-15T10:22:34.557Z,1.45
2023-03-15T10:25:06.466Z,1.77
2023-03-15T10:27:39.887Z,1.90
2023-03-15T10:30:16.864Z,1.70
2023-03-15T10:32:50.003Z,1.70
2023-03-15T10:35:21.366Z,1.90
2023-03-15T10:37:49.027Z,2.05
2023-03-15T10:40:17.123Z,1.73
2023-03-15T10:42:45.701Z,1.98
2023-03-15T10:45:20.746Z,1.50
2023-03-15T10:47:59.754Z,1.70
2023-03-15T10:50:30.856Z,1.60
2023-03-15T10:53:00.355Z,1.23
2023-03-15T10:55:33.751Z,1.55
2023-03-15T10:58:20.354Z,1.80
2023-03-15T11:00:51.633Z,1.98
2023-03-15T11:03:22.193Z,1.90
2023-03-15T11:05:52.052Z,1.83
2023-03-15T11:08:21.934Z,1.90
2023-03-15T11:10:57.942Z,1.45
2023-03-15T11:13:27.223Z,1.50
2023-03-15T11:16:03.708Z,1.80
2023-03-15T11:18:36.396Z,1.50
2023-03-15T11:21:08.105Z,1.30
2023-03-15T11:23:38.731Z,1.50
2023-03-15T11:26:07.119Z,1.38
2023-03-15T11:28:38.195Z,1.50
2023-03-15T11:31:07.114Z,1.33
2023-03-15T11:33:46.518Z,1.30
2023-03-15T11:36:18.117Z,1.60
2023-03-15T11:38:47.100Z,1.20
2023-03-15T11:41:25.012Z,1.45
2023-03-15T11:44:02.109Z,1.20
2023-03-15T11:46:33.707Z,1.20
2023-03-15T11:49:12.620Z,1.35
2023-03-15T11:51:40.881Z,1.30
2023-03-15T11:54:12.244Z,1.40
2023-03-15T11:56:52.673Z,1.40
2023-03-15T11:59:22.191Z,1.40
2023-03-15T12:01:51.964Z,1.40
2023-03-15T12:04:45.877Z,1.38
2023-03-15T12:07:34.512Z,1.42
2023-03-15T12:10:34.139Z,1.40
2023-03-15T12:13:08.774Z,1.63
2023-03-15T12:15:50.448Z,1.52
2023-03-15T12:18:32.013Z,1.50
2023-03-15T12:21:11.437Z,1.30
2023-03-15T12:23:42.458Z,2.20
2023-03-15T12:26:17.434Z,1.52
2023-03-15T12:28:52.410Z,1.73
2023-03-15T12:31:21.237Z,1.40
2023-03-15T12:33:51.835Z,1.80
2023-03-15T12:36:32.958Z,1.40
2023-03-15T12:39:04.246Z,1.67
2023-03-15T12:41:38.792Z,1.60
2023-03-15T12:44:27.030Z,1.42
2023-03-15T12:46:59.836Z,1.63
2023-03-15T12:49:38.785Z,1.27
2023-03-15T12:52:28.130Z,1.30
2023-03-15T12:55:02.146Z,1.30
2023-03-15T12:57:31.505Z,1.30
2023-03-15T13:00:01.738Z,1.40
2023-03-15T13:02:42.823Z,1.17
2023-03-15T13:05:23.261Z,1.35
2023-03-15T13:08:02.096Z,1.77
2023-03-15T13:10:41.195Z,1.20
2023-03-15T13:13:26.347Z,1.40
2023-03-15T13:16:07.680Z,1.47
2023-03-15T13:18:42.878Z,1.40
2023-03-15T13:21:19.146Z,2.08
2023-03-15T13:23:51.825Z,1.52
2023-03-15T13:26:45.236Z,1.70
2023-03-15T13:29:17.436Z,1.70
2023-03-15T13:31:46.098Z,2.25
2023-03-15T13:34:17.182Z,1.70
2023-03-15T13:36:46.943Z,2.20
2023-03-15T13:39:23.138Z,1.60
2023-03-15T13:41:51.260Z,1.97
2023-03-15T13:44:21.461Z,1.40
2023-03-15T13:46:50.608Z,1.77
2023-03-15T13:49:19.739Z,1.92
2023-03-15T13:51:49.253Z,1.75
2023-03-15T13:54:19.596Z,1.37
2023-03-15T13:56:59.262Z,1.77
2023-03-15T13:59:32.471Z,1.65
2023-03-15T14:02:02.296Z,1.80
2023-03-15T14:04:32.456Z,2.03
2023-03-15T14:07:17.288Z,1.20
2023-03-15T14:09:46.461Z,1.70
2023-03-15T14:12:23.581Z,1.70
2023-03-15T14:14:53.997Z,2.05
2023-03-15T14:17:26.984Z,1.63
2023-03-15T14:19:56.587Z,1.60
2023-03-15T14:22:24.776Z,1.80
2023-03-15T14:24:53.927Z,1.73
2023-03-15T14:27:26.833Z,1.45
2023-03-15T14:29:57.389Z,1.65
2023-03-15T14:32:28.848Z,1.47
2023-03-15T14:35:02.700Z,1.80
2023-03-15T14:37:36.821Z,1.75
2023-03-15T14:40:16.238Z,1.70
2023-03-15T14:42:45.871Z,1.70
2023-03-15T14:45:14.448Z,1.90
2023-03-15T14:47:55.562Z,1.60
2023-03-15T14:50:26.004Z,1.73
2023-03-15T14:52:54.829Z,1.73
2023-03-15T14:55:25.510Z,1.73
2023-03-15T14:57:54.390Z,1.70
2023-03-15T15:00:22.509Z,1.63
2023-03-15T15:02:53.485Z,1.73
2023-03-15T15:05:24.540Z,1.55
2023-03-15T15:07:54.710Z,1.70
2023-03-15T15:10:23.340Z,1.73
2023-03-15T15:13:05.203Z,1.60
2023-03-15T15:15:44.022Z,2.20
2023-03-15T15:18:19.650Z,1.83
2023-03-15T15:20:47.437Z,1.90
2023-03-15T15:23:19.671Z,1.83
2023-03-15T15:25:48.022Z,1.80
2023-03-15T15:28:27.518Z,1.75
2023-03-15T15:31:02.544Z,2.00
2023-03-15T15:33:30.095Z,1.73
2023-03-15T15:35:58.907Z,1.63
2023-03-15T15:38:32.839Z,1.42
2023-03-15T15:41:00.387Z,1.83
2023-03-15T15:43:27.909Z,1.90
2023-03-15T15:45:55.595Z,1.80
2023-03-15T15:48:24.568Z,1.60
2023-03-15T15:50:52.076Z,2.00
2023-03-15T15:53:19.711Z,1.70
2023-03-15T15:55:47.474Z,1.65
2023-03-15T15:58:15.261Z,2.17
2023-03-15T16:00:42.766Z,2.00
2023-03-15T16:03:14.923Z,2.00
2023-03-15T16:05:44.485Z,1.95
2023-03-15T16:08:20.891Z,1.90
2023-03-15T16:10:48.447Z,2.00
2023-03-15T16:13:16.132Z,2.00
2023-03-15T16:15:43.927Z,1.80
2023-03-15T16:18:12.547Z,1.80
2023-03-15T16:20:41.210Z,1.40
2023-03-15T16:23:18.063Z,1.65
2023-03-15T16:25:48.796Z,2.30
2023-03-15T16:28:16.460Z,1.83
2023-03-15T16:30:46.515Z,1.83
2023-03-15T16:33:16.371Z,1.45
2023-03-15T16:35:44.899Z,1.85
2023-03-15T16:38:16.969Z,1.70
2023-03-15T16:40:46.425Z,1.70
2023-03-15T16:43:14.648Z,1.83
2023-03-15T16:45:42.306Z,1.60
2023-03-15T16:48:11.778Z,1.63
2023-03-15T16:50:40.829Z,1.87
2023-03-15T16:53:10.966Z,1.80
2023-03-15T16:55:40.429Z,1.98
2023-03-15T16:58:16.695Z,2.10
2023-03-15T17:00:46.872Z,1.98
2023-03-15T17:03:15.652Z,1.60
2023-03-15T17:05:45.519Z,1.50
2023-03-15T17:08:17.734Z,1.38
2023-03-15T17:10:47.283Z,1.83
2023-03-15T17:13:16.881Z,1.90
2023-03-15T17:15:44.436Z,2.10
2023-03-15T17:18:18.319Z,2.42
2023-03-15T17:20:46.786Z,1.95
2023-03-15T17:23:14.614Z,1.90
2023-03-15T17:25:42.152Z,1.70
2023-03-15T17:28:11.249Z,1.90
2023-03-15T17:30:38.985Z,1.80
2023-03-15T17:33:06.817Z,1.83
2023-03-15T17:35:36.861Z,1.88
2023-03-15T17:38:06.563Z,2.15
2023-03-15T17:40:36.713Z,1.87
2023-03-15T17:43:05.298Z,1.92
2023-03-15T17:45:35.329Z,1.60
2023-03-15T17:48:04.142Z,2.10
2023-03-15T17:50:33.186Z,2.20
2023-03-15T17:53:03.104Z,2.53
2023-03-15T17:55:34.227Z,1.83
2023-03-15T17:58:02.105Z,2.10
2023-03-15T18:00:32.373Z,1.90
2023-03-15T18:03:01.885Z,2.13
2023-03-15T18:05:30.521Z,2.00
2023-03-15T18:07:59.927Z,2.10
2023-03-15T18:10:34.475Z,2.03
2023-03-15T18:13:02.857Z,1.85
2023-03-15T18:15:30.727Z,1.92
2023-03-15T18:17:58.288Z,2.10
2023-03-15T18:20:28.486Z,2.20
2023-03-15T18:22:56.095Z,2.05
2023-03-15T18:25:25.706Z,1.95
2023-03-15T18:27:53.856Z,2.17
2023-03-15T18:30:23.162Z,1.97
2023-03-15T18:32:52.425Z,2.00
2023-03-15T18:35:22.328Z,2.47
2023-03-15T18:37:51.294Z,1.90
2023-03-15T18:40:21.085Z,1.90
2023-03-15T18:42:48.725Z,2.10
2023-03-15T18:45:19.475Z,1.80
2023-03-15T18:47:47.875Z,2.30
2023-03-15T18:50:16.522Z,2.03
2023-03-15T18:52:44.626Z,2.30
2023-03-15T18:55:14.704Z,2.20
2023-03-15T18:57:42.920Z,3.03
2023-03-15T19:00:13.435Z,3.00
2023-03-15T19:02:42.114Z,4.28
2023-03-15T19:05:11.559Z,2.47
2023-03-15T19:07:39.681Z,2.83
2023-03-15T19:10:09.900Z,2.30
2023-03-15T19:12:40.492Z,2.40
2023-03-15T19:15:10.509Z,2.00
2023-03-15T19:17:38.750Z,2.00
2023-03-15T19:20:07.605Z,2.30
2023-03-15T19:22:35.738Z,2.38
2023-03-15T19:25:03.843Z,2.22
2023-03-15T19:27:31.361Z,2.95
2023-03-15T19:30:00.520Z,2.67
2023-03-15T19:32:29.721Z,2.47
2023-03-15T19:34:57.828Z,2.25
2023-03-15T19:37:25.469Z,1.95
2023-03-15T19:39:53.587Z,2.65
2023-03-15T19:42:21.261Z,2.67
2023-03-15T19:44:48.903Z,2.60
2023-03-15T19:47:17.824Z,2.60
2023-03-15T19:49:45.815Z,2.20
2023-03-15T19:52:15.658Z,2.80
2023-03-15T19:54:43.199Z,2.80
2023-03-15T19:57:11.709Z,2.43
2023-03-15T19:59:41.471Z,2.33
2023-03-15T20:02:11.356Z,2.67
2023-03-15T20:04:40.920Z,2.60
2023-03-15T20:07:10.956Z,2.58
2023-03-15T20:09:38.986Z,2.53
2023-03-15T20:12:07.016Z,2.28
2023-03-15T20:14:34.939Z,2.40
2023-03-15T20:17:03.201Z,3.38
2023-03-15T20:19:30.936Z,2.47
2023-03-15T20:21:59.860Z,2.33
2023-03-15T20:24:27.464Z,2.75
2023-03-15T20:26:55.142Z,2.53
2023-03-15T20:29:22.796Z,2.45
2023-03-15T20:31:50.925Z,2.33
2023-03-15T20:34:18.637Z,2.67
2023-03-15T20:36:46.214Z,2.40
2023-03-15T20:39:15.561Z,2.75
2023-03-15T20:41:43.072Z,3.38
2023-03-15T20:44:10.695Z,3.22
2023-03-15T20:46:39.724Z,2.20
2023-03-15T20:49:07.639Z,2.47
2023-03-15T20:51:35.274Z,2.50
2023-03-15T20:54:03.003Z,2.95
2023-03-15T20:56:33.544Z,2.60
2023-03-15T20:59:01.090Z,3.50
2023-03-15T21:01:28.802Z,2.88
2023-03-15T21:03:57.304Z,2.75
2023-03-15T21:06:25.082Z,2.80
2023-03-15T21:08:52.643Z,2.92
2023-03-15T21:11:20.582Z,4.80
2023-03-15T21:13:49.453Z,4.20
2023-03-15T21:16:18.214Z,4.47
2023-03-15T21:18:51.553Z,5.10
2023-03-15T21:21:19.850Z,4.55
2023-03-15T21:23:47.445Z,4.33
2023-03-15T21:26:15.369Z,5.10
2023-03-15T21:28:43.049Z,5.97
2023-03-15T21:31:12.643Z,5.18
2023-03-15T21:33:40.553Z,4.38
2023-03-15T21:36:08.785Z,4.63
2023-03-15T21:38:36.392Z,3.53
2023-03-15T21:41:08.995Z,3.30
2023-03-15T21:43:36.817Z,3.45
2023-03-15T21:46:07.109Z,3.40
2023-03-15T21:48:37.089Z,3.10
2023-03-15T21:51:05.466Z,3.45
2023-03-15T21:53:34.358Z,3.10
2023-03-15T21:56:03.518Z,3.42
2023-03-15T21:58:31.278Z,3.50
2023-03-15T22:00:59.597Z,3.87
2023-03-15T22:03:27.523Z,5.95
2023-03-15T22:05:56.445Z,4.40
2023-03-15T22:08:24.203Z,4.20
2023-03-15T22:10:53.652Z,3.45
2023-03-15T22:13:21.457Z,3.23
2023-03-15T22:15:57.715Z,3.25
2023-03-15T22:18:28.424Z,2.83
2023-03-15T22:20:57.595Z,2.90
2023-03-15T22:23:25.507Z,3.45
2023-03-15T22:25:54.307Z,3.00
2023-03-15T22:28:22.518Z,2.88
2023-03-15T22:30:51.008Z,3.20
2023-03-15T22:33:20.187Z,3.50
2023-03-15T22:35:53.868Z,3.08
2023-03-15T22:38:23.011Z,3.20
2023-03-15T22:40:50.613Z,2.90
2023-03-15T22:43:19.106Z,2.97
2023-03-15T22:45:46.647Z,2.85
2023-03-15T22:48:14.222Z,2.40
2023-03-15T22:50:41.736Z,3.30
2023-03-15T22:53:09.315Z,3.00
2023-03-15T22:55:38.174Z,2.30
2023-03-15T22:58:05.721Z,2.50
2023-03-15T23:00:33.802Z,2.67
2023-03-15T23:03:01.299Z,2.60
2023-03-15T23:05:28.881Z,3.17
2023-03-15T23:07:56.399Z,2.47
2023-03-15T23:10:24.213Z,2.42
2023-03-15T23:12:53.273Z,2.55
2023-03-15T23:15:20.868Z,2.73
2023-03-15T23:17:48.383Z,2.42
2023-03-15T23:20:17.262Z,3.33
2023-03-15T23:22:45.181Z,3.00
2023-03-15T23:25:14.722Z,2.90
2023-03-15T23:27:43.083Z,3.30
2023-03-15T23:30:13.543Z,2.80
2023-03-15T23:32:41.924Z,3.15
2023-03-15T23:35:12.099Z,2.80
2023-03-15T23:37:39.701Z,2.75
2023-03-15T23:40:14.215Z,3.23
2023-03-15T23:42:42.540Z,2.47
2023-03-15T23:45:13.087Z,2.90
2023-03-15T23:47:41.448Z,2.90
2023-03-15T23:50:10.532Z,3.13
2023-03-15T23:52:38.074Z,2.50
2023-03-15T23:55:06.256Z,2.42
2023-03-15T23:57:33.858Z,3.00
